Latest Weather Observations for Legendre Island

IDW60801

Issued at 6:35 pm WST Wednesday 27 August 2014 (issued every 30 minutes, with the page automatically refreshed every 10 minutes)

About weather observations | Map of weather stations | Latest weather observations for WA | Other Formats
Station Details ID: 004095 Name: LEGENDRE ISLAND Lat: -20.36 Lon: 116.84 Height: 29.0 m
Data from the previous 72 hours. | See also: Recent months for locations in Western Australia
Date/Time
WST
Temp
°C
App
Temp
°C
Dew
Point
Rel
Hum
%
Delta-T
°C
Wind Press
QNH
hPa
Press
MSL
hPa
Rain
since 9 am
mm
Dir
 
Spd
km/h
Gust
km/h
Spd
kts
Gust
kts
27/06:30pm 23.1 22.6 17.8 72 3.3 NNE 17 19 9 10 1015.2 1015.1 -
27/06:00pm 23.3 22.7 17.5 70 3.6 NNE 17 20 9 11 1015.0 1014.9 -
27/05:30pm 23.8 22.6 17.1 66 4.1 NNE 19 22 10 12 1015.0 1014.9 -
27/05:00pm 24.3 22.7 16.6 62 4.7 NNE 20 22 11 12 1014.9 1014.8 -
27/04:30pm 24.5 22.5 15.4 57 5.5 NNE 20 24 11 13 1014.8 1014.7 -
27/04:00pm 24.9 23.1 16.1 58 5.4 ENE 20 22 11 12 1015.2 1015.1 -
27/03:30pm 25.4 24.0 16.5 58 5.5 ENE 19 20 10 11 1015.1 1015.0 -
27/03:00pm 25.9 24.7 16.2 55 6.0 E 17 20 9 11 1015.2 1015.1 -
27/02:30pm 26.3 24.6 15.7 52 6.5 E 19 20 10 11 1015.5 1015.3 -
27/02:00pm 26.2 23.9 14.6 48 6.9 ENE 20 24 11 13 1015.3 1015.2 -
27/01:30pm 26.1 23.1 13.6 46 7.4 E 22 26 12 14 1015.7 1015.5 -
27/01:00pm 26.3 23.3 13.8 46 7.4 E 22 28 12 15 1015.9 1015.7 -
27/12:30pm 26.2 23.2 13.7 46 7.4 E 22 26 12 14 1016.6 1016.4 -
27/12:00pm 26.1 22.3 11.1 39 8.5 E 22 28 12 15 1017.0 1016.8 -
27/11:30am 26.3 23.1 11.2 38 8.6 E 19 24 10 13 1017.4 1017.2 -
27/11:00am 26.6 22.3 10.7 37 8.9 ESE 24 30 13 16 1017.9 1017.8 -
27/10:30am 26.0 21.0 9.4 35 9.1 ESE 26 32 14 17 1017.9 1017.8 -
27/10:00am 26.8 21.7 9.2 33 9.7 ESE 26 30 14 16 1018.0 1017.9 -
27/09:30am 26.7 21.8 5.1 25 11.0 SE 20 28 11 15 1017.9 1017.8 -
27/09:00am 26.2 21.4 5.7 27 10.5 SE 20 24 11 13 1017.9 1017.8 -
27/08:30am 24.8 21.7 10.3 40 8.0 SE 17 20 9 11 1017.9 1017.8 -
27/08:00am 23.4 20.8 12.1 49 6.4 SE 17 20 9 11 1017.6 1017.4 -
27/07:30am 21.2 20.0 15.1 68 3.6 SE 15 19 8 10 1017.3 1017.1 -
27/07:00am 19.6 17.5 14.6 73 2.9 SE 19 20 10 11 1016.9 1016.7 -
27/06:30am 19.1 16.4 13.5 70 3.2 SSE 20 20 11 11 1016.5 1016.3 -
27/06:00am 19.0 14.8 11.1 60 4.3 SE 24 28 13 15 1016.2 1016.0 -
27/05:30am 19.6 16.0 10.0 54 5.1 SSE 19 22 10 12 1015.9 1015.7 -
27/05:00am 19.0 14.7 10.8 59 4.4 SSE 24 26 13 14 1015.6 1015.4 -
27/04:30am 18.1 14.3 11.0 63 3.8 S 22 26 12 14 1015.5 1015.3 -
27/04:00am 18.3 16.3 15.0 81 1.9 S 19 22 10 12 1015.3 1015.2 -
27/03:30am 17.7 15.8 15.3 86 1.4 S 19 22 10 12 1015.5 1015.3 -
27/03:00am 18.2 17.0 17.0 93 0.7 S 19 22 10 12 1015.5 1015.3 -
27/02:30am 18.3 18.1 17.5 95 0.5 S 15 17 8 9 1015.6 1015.4 -
27/02:00am 19.1 19.3 18.6 97 0.3 SSE 15 19 8 10 1015.8 1015.6 -
27/01:30am 19.4 19.6 18.6 95 0.5 SE 15 19 8 10 1016.1 1015.9 -
27/01:00am 19.6 20.5 18.4 93 0.7 SE 11 15 6 8 1016.3 1016.1 -
27/12:30am 19.8 20.9 18.1 90 1.1 SE 9 13 5 7 1016.5 1016.3 -
27/12:00am 20.0 21.5 18.0 88 1.2 SSE 7 9 4 5 1016.7 1016.5 -
 
Date/Time
WST
Temp
°C
App
Temp
°C
Dew
Point
Rel
Hum
%
Delta-T
°C
Wind Press
QNH
hPa
Press
MSL
hPa
Rain
since 9 am
mm
Dir
 
Spd
km/h
Gust
km/h
Spd
kts
Gust
kts
26/11:30pm 19.7 21.0 17.5 87 1.3 SE 7 13 4 7 1016.8 1016.6 -
26/11:00pm 20.1 21.2 18.1 88 1.2 SSE 9 13 5 7 1017.0 1016.8 -
26/10:30pm 20.2 21.9 17.2 83 1.8 NNE 4 4 2 2 1017.1 1016.9 -
26/10:00pm 21.9 24.7 18.9 83 1.9 NNE 2 4 1 2 1017.2 1017.0 -
26/09:30pm 22.1 24.0 18.5 80 2.3 NE 6 6 3 3 1017.1 1016.9 -
26/09:00pm 20.9 23.0 17.3 80 2.2 NNE 2 6 1 3 1017.1 1016.9 -
26/08:30pm 22.6 24.6 18.8 79 2.4 N 6 7 3 4 1017.0 1016.8 -
26/08:00pm 22.5 24.0 18.1 76 2.7 N 7 7 4 4 1017.0 1016.8 -
26/07:30pm 22.7 24.2 18.0 75 2.9 N 7 9 4 5 1016.8 1016.6 -
26/07:00pm 23.0 24.1 17.9 73 3.2 N 9 11 5 6 1016.3 1016.1 -
26/06:30pm 23.0 23.5 17.5 71 3.4 N 11 13 6 7 1016.0 1015.8 -
26/06:00pm 23.4 23.5 17.4 69 3.7 N 13 17 7 9 1015.8 1015.6 -
26/05:30pm 23.7 22.7 16.5 64 4.4 N 17 20 9 11 1015.6 1015.4 -
26/05:00pm 24.2 22.3 15.7 59 5.1 NNE 20 24 11 13 1015.5 1015.3 -
26/04:30pm 24.4 22.6 16.1 60 5.1 NNE 20 24 11 13 1015.5 1015.3 -
26/04:00pm 25.1 23.2 15.7 56 5.7 NNE 20 22 11 12 1015.6 1015.4 -
26/03:30pm 25.3 23.5 15.6 55 5.9 NNE 19 24 10 13 1015.8 1015.6 -
26/03:00pm 25.5 23.4 15.2 53 6.2 NE 20 26 11 14 1016.2 1016.0 -
26/02:30pm 25.5 22.9 14.9 52 6.4 NE 22 26 12 14 1016.4 1016.2 -
26/02:00pm 25.9 22.9 14.7 50 6.7 ENE 24 30 13 16 1016.7 1016.5 -
26/01:30pm 26.0 22.6 14.8 50 6.7 ENE 26 28 14 15 1017.0 1016.8 -
26/01:00pm 26.1 22.5 14.2 48 7.1 ENE 26 30 14 16 1017.3 1017.1 -
26/12:30pm 26.1 22.4 13.9 47 7.2 ENE 26 32 14 17 1017.8 1017.6 -
26/12:00pm 25.9 21.4 12.7 44 7.6 ENE 28 33 15 18 1018.2 1018.1 -
26/11:30am 26.0 20.1 11.0 39 8.5 ENE 33 39 18 21 1018.6 1018.5 -
26/11:00am 25.6 21.3 12.1 43 7.7 E 26 30 14 16 1019.1 1019.0 -
26/10:30am 25.9 21.6 10.9 39 8.4 E 24 28 13 15 1019.6 1019.5 -
26/10:00am 26.1 21.7 10.3 37 8.8 ESE 24 30 13 16 1019.8 1019.7 -
26/09:30am 26.3 21.8 10.0 36 9.1 ESE 24 28 13 15 1019.8 1019.7 -
26/09:00am 25.5 20.6 8.5 34 9.1 ESE 24 30 13 16 1019.6 1019.5 -
26/08:30am 24.4 19.5 8.4 36 8.6 ESE 24 32 13 17 1019.5 1019.4 -
26/08:00am 23.2 19.0 9.6 42 7.4 SE 22 30 12 16 1019.3 1019.2 -
26/07:30am 22.0 17.2 8.9 43 7.0 SE 24 32 13 17 1018.8 1018.7 -
26/07:00am 20.8 15.5 8.4 45 6.5 SSE 26 28 14 15 1018.6 1018.5 -
26/06:30am 20.2 15.3 8.5 47 6.1 SSE 24 28 13 15 1018.2 1018.1 -
26/06:00am 20.0 15.1 9.9 52 5.4 SSE 26 28 14 15 1017.9 1017.8 -
26/05:30am 19.3 15.6 12.6 65 3.8 SSE 24 26 13 14 1017.9 1017.8 -
26/05:00am 19.4 15.9 12.2 63 4.0 SSE 22 24 12 13 1017.9 1017.8 -
26/04:30am 20.0 16.2 12.3 61 4.3 SSE 24 28 13 15 1017.8 1017.6 -
26/04:00am 20.1 16.2 12.1 60 4.5 SSE 24 28 13 15 1017.7 1017.5 -
26/03:30am 19.6 16.6 12.6 64 3.9 SSE 20 24 11 13 1017.7 1017.5 -
26/03:00am 19.4 17.5 14.2 72 3.0 S 17 19 9 10 1017.7 1017.5 -
26/02:30am 19.4 18.1 15.9 80 2.1 S 17 19 9 10 1017.8 1017.6 -
26/02:00am 19.5 18.7 16.2 81 2.0 SSE 15 17 8 9 1018.1 1018.0 -
26/01:30am 19.9 20.1 16.7 82 1.9 S 11 13 6 7 1018.3 1018.2 -
26/01:00am 19.8 19.0 16.1 79 2.2 SSE 15 17 8 9 1018.4 1018.3 -
26/12:30am 20.4 19.6 17.2 82 2.0 SSE 17 19 9 10 1018.6 1018.5 -
26/12:00am 20.3 19.9 16.1 77 2.5 SE 13 20 7 11 1018.6 1018.5 -
 
Date/Time
WST
Temp
°C
App
Temp
°C
Dew
Point
Rel
Hum
%
Delta-T
°C
Wind Press
QNH
hPa
Press
MSL
hPa
Rain
since 9 am
mm
Dir
 
Spd
km/h
Gust
km/h
Spd
kts
Gust
kts
25/11:30pm 20.6 20.4 15.6 73 3.0 ESE 11 15 6 8 1018.8 1018.7 -
25/11:00pm 20.9 20.7 13.6 63 4.2 ESE 7 9 4 5 1018.9 1018.8 -
25/10:30pm 22.1 22.5 14.7 63 4.4 E 6 7 3 4 1018.9 1018.8 -
25/10:00pm 22.6 23.0 14.7 61 4.7 E 6 6 3 3 1019.0 1018.9 -
25/09:30pm 22.4 23.3 15.0 63 4.4 ENE 4 6 2 3 1018.9 1018.8 -
25/09:00pm 23.1 24.3 15.9 64 4.3 NE 4 6 2 3 1018.8 1018.7 -
25/08:30pm 23.0 24.3 17.2 70 3.6 NNE 6 9 3 5 1018.7 1018.6 -
25/08:00pm 23.1 23.5 17.3 70 3.6 NNE 11 13 6 7 1018.4 1018.3 -
25/07:30pm 23.2 23.3 17.4 70 3.6 NNE 13 15 7 8 1018.1 1018.0 -
25/07:00pm 23.5 22.8 17.3 68 3.8 NNE 17 19 9 10 1017.8 1017.6 -
25/06:30pm 23.6 22.0 16.6 65 4.3 NNE 20 24 11 13 1017.5 1017.3 -
25/06:00pm 23.8 21.7 16.3 63 4.6 NNE 22 28 12 15 1017.2 1017.0 -
25/05:30pm 24.3 21.1 15.2 57 5.5 NNE 26 33 14 18 1016.8 1016.6 -
25/05:00pm 24.7 20.7 15.1 55 5.8 NNE 30 35 16 19 1016.8 1016.6 -
25/04:30pm 25.1 20.5 14.6 52 6.3 NE 32 35 17 19 1016.8 1016.6 -
25/04:00pm 25.8 21.3 14.9 51 6.5 NE 32 39 17 21 1016.8 1016.6 -
25/03:30pm 25.7 21.2 14.8 51 6.5 NE 32 35 17 19 1017.0 1016.8 -
25/03:00pm 25.9 21.9 15.3 52 6.4 NE 30 33 16 18 1017.1 1016.9 -
25/02:30pm 26.1 21.5 14.6 49 6.9 NE 32 37 17 20 1017.2 1017.0 -
25/02:00pm 25.9 21.9 15.3 52 6.4 NE 30 37 16 20 1017.4 1017.2 -
25/01:30pm 25.9 21.8 15.0 51 6.6 ENE 30 35 16 19 1017.5 1017.3 -
25/01:00pm 25.8 20.8 14.0 48 7.0 ENE 33 39 18 21 1017.8 1017.6 -
25/12:30pm 26.0 20.7 13.2 45 7.5 ENE 33 39 18 21 1018.3 1018.2 -
25/12:00pm 26.4 21.2 13.5 45 7.6 ENE 33 41 18 22 1018.7 1018.6 -
25/11:30am 25.8 20.7 13.6 47 7.2 ENE 33 39 18 21 1019.0 1018.9 -
25/11:00am 25.5 20.3 13.4 47 7.1 E 33 39 18 21 1019.3 1019.2 -
25/10:30am 25.3 19.6 12.9 46 7.2 E 35 41 19 22 1019.6 1019.5 -
25/10:00am 25.2 17.7 11.0 41 8.0 E 41 46 22 25 1019.7 1019.6 -
25/09:30am 25.4 19.3 11.6 42 7.8 E 35 41 19 22 1019.8 1019.7 -
25/09:00am 25.0 21.0 14.2 51 6.4 E 28 35 15 19 1019.6 1019.5 -
25/08:30am 24.3 19.5 12.9 49 6.6 E 30 35 16 19 1019.3 1019.2 -
25/08:00am 23.9 18.6 11.3 45 7.1 E 30 37 16 20 1019.2 1019.1 -
25/07:30am 22.5 18.1 9.0 42 7.2 SE 22 30 12 16 1019.2 1019.1 -
25/07:00am 20.7 16.1 9.6 49 5.9 SE 24 28 13 15 1018.8 1018.7 -
25/06:30am 19.9 15.4 10.0 53 5.3 SE 24 30 13 16 1018.5 1018.4 -
25/06:00am 19.8 14.6 10.2 54 5.2 SE 28 35 15 19 1018.3 1018.2 -
25/05:30am 20.2 14.5 8.2 46 6.2 SSE 28 30 15 16 1018.2 1018.1 -
25/05:00am 20.7 14.5 8.0 44 6.6 SSE 30 33 16 18 1018.3 1018.2 -
25/04:30am 20.5 14.8 8.2 45 6.4 SSE 28 32 15 17 1018.2 1018.1 -
25/04:00am 20.0 14.8 8.7 48 5.9 SSE 26 28 14 15 1018.4 1018.3 -
25/03:30am 19.9 15.5 10.3 54 5.2 SSE 24 26 13 14 1018.5 1018.4 -
25/03:00am 20.8 16.8 10.3 51 5.7 SSE 22 26 12 14 1018.6 1018.5 -
25/02:30am 20.2 16.7 10.9 55 5.1 SSE 20 24 11 13 1018.7 1018.6 -
25/02:00am 19.8 16.1 11.6 59 4.5 S 22 24 12 13 1018.8 1018.7 -
25/01:30am 20.1 18.0 12.3 61 4.4 SSE 15 17 8 9 1019.1 1019.0 -
25/01:00am 19.5 18.0 14.3 72 3.0 SSE 15 15 8 8 1019.1 1019.0 -
25/12:30am 20.4 19.7 15.4 73 3.0 SSE 13 15 7 8 1019.3 1019.2 -
25/12:00am 20.7 20.6 15.9 74 2.9 S 11 13 6 7 1019.4 1019.3 -
 
Date/Time
WST
Temp
°C
App
Temp
°C
Dew
Point
Rel
Hum
%
Delta-T
°C
Wind Press
QNH
hPa
Press
MSL
hPa
Rain
since 9 am
mm
Dir
 
Spd
km/h
Gust
km/h
Spd
kts
Gust
kts
24/11:30pm 20.5 20.0 15.9 75 2.8 S 13 17 7 9 1019.6 1019.5 -
24/11:00pm 20.9 20.7 13.6 63 4.2 SSE 7 15 4 8 1019.7 1019.6 -
24/10:30pm 21.0 21.3 13.4 62 4.4 SSE 4 6 2 3 1019.8 1019.7 -
24/10:00pm 21.3 22.2 16.0 72 3.2 S 6 9 3 5 1019.9 1019.8 -
24/09:30pm 21.3 23.0 18.1 82 2.0 S 6 7 3 4 1019.8 1019.7 -
24/09:00pm 21.6 23.2 18.2 81 2.1 SSW 7 7 4 4 1019.8 1019.7 -
24/08:30pm 22.3 24.7 17.0 72 3.3 CALM 0 0 0 0 1019.5 1019.4 -
24/08:00pm 23.1 23.9 14.9 60 4.9 N 4 4 2 2 1019.3 1019.2 -
24/07:30pm 22.2 23.3 15.5 66 4.0 NW 4 4 2 2 1019.1 1019.0 -
24/07:00pm 23.6 23.3 12.6 50 6.3 N 6 7 3 4 1018.7 1018.6 -

Other Formats:

Comma delimited format used in spreadsheet applications
http://www.bom.gov.au/fwo/IDW60801/IDW60801.94307.axf

JavaScript Object Notation format (JSON) in row-major order
http://www.bom.gov.au/fwo/IDW60801/IDW60801.94307.json